createdAt,value
2022-11-24T00:00:39.692Z,87.65
2022-11-24T00:05:41.081Z,87.58
2022-11-24T00:10:42.695Z,87.25
2022-11-24T00:15:44.079Z,87.59
2022-11-24T00:20:52.168Z,86.88
2022-11-24T00:25:53.562Z,87.04
2022-11-24T00:30:55.044Z,86.63
2022-11-24T00:35:58.383Z,87.35
2022-11-24T00:40:59.753Z,87.09
2022-11-24T00:46:01.284Z,86.72
2022-11-24T00:51:06.309Z,86.67
2022-11-24T00:56:08.603Z,87.08
2022-11-24T01:01:18.934Z,86.77
2022-11-24T01:06:25.859Z,86.26
2022-11-24T01:11:29.856Z,86.82
2022-11-24T01:16:34.421Z,87.03
2022-11-24T01:21:35.814Z,86.33
2022-11-24T01:26:38.395Z,86.51
2022-11-24T01:31:40.412Z,86.96
2022-11-24T01:36:41.815Z,86.57
2022-11-24T01:41:43.213Z,87.23
2022-11-24T01:46:48.504Z,86.73
2022-11-24T01:52:13.709Z,87.20
2022-11-24T01:57:21.986Z,86.90
2022-11-24T02:02:25.733Z,87.13
2022-11-24T02:07:28.022Z,88.35
2022-11-24T02:12:29.467Z,88.06
2022-11-24T02:17:30.846Z,88.14
2022-11-24T02:22:44.177Z,87.65
2022-11-24T02:27:50.760Z,88.76
2022-11-24T02:32:55.114Z,88.83
2022-11-24T02:37:56.541Z,89.15
2022-11-24T02:43:04.565Z,89.60
2022-11-24T02:48:06.482Z,89.54
2022-11-24T02:53:07.917Z,89.52
2022-11-24T02:58:09.346Z,89.08
2022-11-24T03:03:11.311Z,88.67
2022-11-24T03:08:12.927Z,89.02
2022-11-24T03:13:14.466Z,88.41
2022-11-24T03:18:15.904Z,87.91
2022-11-24T03:23:17.300Z,87.96
2022-11-24T03:28:18.697Z,87.99
2022-11-24T03:33:20.065Z,88.40
2022-11-24T03:38:21.440Z,88.21
2022-11-24T03:43:22.894Z,88.21
2022-11-24T03:48:24.381Z,88.89
2022-11-24T03:53:27.829Z,89.04
2022-11-24T03:58:29.935Z,88.56
2022-11-24T04:03:31.388Z,88.46
2022-11-24T04:08:33.132Z,88.63
2022-11-24T04:13:34.497Z,89.62
2022-11-24T04:18:35.892Z,90.24
2022-11-24T04:23:37.260Z,90.11
2022-11-24T04:28:38.669Z,90.88
2022-11-24T04:33:40.344Z,90.05
2022-11-24T04:39:23.121Z,89.69
2022-11-24T04:44:03.196Z,89.80
2022-11-24T04:49:05.416Z,90.06
2022-11-24T04:54:08.106Z,90.06
2022-11-24T04:59:14.852Z,89.63
2022-11-24T05:04:16.477Z,89.85
2022-11-24T05:09:18.172Z,90.05
2022-11-24T05:14:19.571Z,90.40
2022-11-24T05:19:21.100Z,90.29
2022-11-24T05:24:22.463Z,90.96
2022-11-24T05:29:23.830Z,90.65
2022-11-24T05:34:25.418Z,90.51
2022-11-24T05:39:26.811Z,91.35
2022-11-24T05:44:28.237Z,91.42
2022-11-24T05:49:29.620Z,91.41
2022-11-24T05:54:31.087Z,91.36
2022-11-24T05:59:32.594Z,90.84
2022-11-24T06:04:34.383Z,91.03
2022-11-24T06:09:40.927Z,90.96
2022-11-24T06:14:42.460Z,91.75
2022-11-24T06:19:47.752Z,91.80
2022-11-24T06:24:50.560Z,91.61
2022-11-24T06:29:52.259Z,92.08
2022-11-24T06:34:53.620Z,92.06
2022-11-24T06:39:54.992Z,92.22
2022-11-24T06:44:56.374Z,91.92
2022-11-24T06:49:57.988Z,92.15
2022-11-24T06:54:59.385Z,92.29
2022-11-24T07:00:00.807Z,92.13
2022-11-24T07:05:02.185Z,91.86
2022-11-24T07:10:03.828Z,91.88
2022-11-24T07:15:05.811Z,91.92
2022-11-24T07:20:08.710Z,91.68
2022-11-24T07:25:10.792Z,92.05
2022-11-24T07:30:12.531Z,92.04
2022-11-24T07:35:13.994Z,91.63
2022-11-24T07:40:15.644Z,92.24
2022-11-24T07:45:17.062Z,92.55
2022-11-24T07:50:18.898Z,92.60
2022-11-24T07:55:20.290Z,92.85
2022-11-24T08:00:21.689Z,92.96
2022-11-24T08:05:23.149Z,93.03
2022-11-24T08:10:24.551Z,93.10
2022-11-24T08:15:26.010Z,93.23
2022-11-24T08:20:27.369Z,93.31
2022-11-24T08:25:32.975Z,93.12
2022-11-24T08:30:34.393Z,92.80
2022-11-24T08:35:37.976Z,93.24
2022-11-24T08:40:39.407Z,93.22
2022-11-24T08:45:41.867Z,93.24
2022-11-24T08:50:43.493Z,93.16
2022-11-24T08:55:44.868Z,93.34
2022-11-24T09:00:46.282Z,93.14
2022-11-24T09:05:52.528Z,93.13
2022-11-24T09:10:59.408Z,92.71
2022-11-24T09:16:12.515Z,93.32
2022-11-24T09:21:18.991Z,94.02
2022-11-24T09:26:27.942Z,93.45
2022-11-24T09:31:31.604Z,94.28
2022-11-24T09:36:33.479Z,94.12
2022-11-24T09:41:39.516Z,93.80
2022-11-24T09:47:24.575Z,93.07
2022-11-24T09:53:01.019Z,93.54
2022-11-24T09:58:23.749Z,93.23
2022-11-24T10:03:43.244Z,93.34
2022-11-24T10:09:12.993Z,93.13
2022-11-24T10:14:26.252Z,93.54
2022-11-24T10:19:48.352Z,94.05
2022-11-24T10:25:21.808Z,93.76
2022-11-24T10:30:26.551Z,93.10
2022-11-24T10:35:37.409Z,93.79
2022-11-24T10:40:59.978Z,92.91
2022-11-24T10:46:16.374Z,92.64
2022-11-24T10:51:30.106Z,93.35
2022-11-24T10:56:42.367Z,93.26
2022-11-24T11:01:43.783Z,93.72
2022-11-24T11:06:45.600Z,93.70
2022-11-24T11:11:48.704Z,94.14
2022-11-24T11:16:59.441Z,93.31
2022-11-24T11:22:03.691Z,93.34
2022-11-24T11:27:26.348Z,93.45
2022-11-24T11:37:51.038Z,93.19
2022-11-24T11:43:21.939Z,94.26
2022-11-24T11:48:32.404Z,93.73
2022-11-24T11:53:49.754Z,93.64
2022-11-24T11:59:06.271Z,93.61
2022-11-24T12:04:41.672Z,92.95
2022-11-24T12:10:08.949Z,93.35
2022-11-24T12:15:41.553Z,93.42
2022-11-24T12:20:55.251Z,93.38
2022-11-24T12:26:22.569Z,93.08
2022-11-24T12:31:45.983Z,93.30
2022-11-24T12:37:02.271Z,92.66
2022-11-24T12:42:13.028Z,93.07
2022-11-24T12:47:23.618Z,92.28
2022-11-24T12:52:35.563Z,92.69
2022-11-24T12:58:00.024Z,92.05
2022-11-24T13:03:10.702Z,91.95
2022-11-24T13:08:14.130Z,92.37
2022-11-24T13:13:15.820Z,91.46
2022-11-24T13:18:55.680Z,90.67
2022-11-24T13:23:58.818Z,91.18
2022-11-24T13:29:13.025Z,91.72
2022-11-24T13:34:38.548Z,91.05
2022-11-24T13:40:03.152Z,92.14
2022-11-24T13:45:25.462Z,92.18
2022-11-24T13:50:56.857Z,92.00
2022-11-24T13:56:00.371Z,92.30
2022-11-24T14:01:06.423Z,91.54
2022-11-24T14:06:34.218Z,91.49
2022-11-24T14:11:35.719Z,91.93
2022-11-24T14:16:37.143Z,91.48
2022-11-24T14:21:41.370Z,91.15
2022-11-24T14:26:46.947Z,92.02
2022-11-24T14:32:03.389Z,92.13
2022-11-24T14:37:04.772Z,91.91
2022-11-24T14:42:21.584Z,91.67
2022-11-24T14:47:37.463Z,91.86
2022-11-24T14:52:46.187Z,92.25
2022-11-24T14:57:47.565Z,92.26
2022-11-24T15:02:54.927Z,92.28
2022-11-24T15:08:03.375Z,91.97
2022-11-24T15:13:19.808Z,92.25
2022-11-24T15:18:31.894Z,92.54
2022-11-24T15:23:34.963Z,92.17
2022-11-24T15:28:36.527Z,92.41
2022-11-24T15:33:38.526Z,92.73
2022-11-24T15:38:39.912Z,92.64
2022-11-24T15:43:41.690Z,92.00
2022-11-24T15:48:43.102Z,92.02
2022-11-24T15:53:46.384Z,91.94
2022-11-24T15:58:48.375Z,90.99
2022-11-24T16:03:50.057Z,91.70
2022-11-24T16:08:52.556Z,92.56
2022-11-24T16:13:54.615Z,92.64
2022-11-24T16:18:56.208Z,92.59
2022-11-24T16:23:57.839Z,92.70
2022-11-24T16:28:59.403Z,92.64
2022-11-24T16:34:00.842Z,92.53
2022-11-24T16:39:02.267Z,92.55
2022-11-24T16:44:04.041Z,92.57
2022-11-24T16:49:05.534Z,93.03
2022-11-24T16:54:07.011Z,92.56
2022-11-24T16:59:08.489Z,92.45
2022-11-24T17:04:12.746Z,92.57
2022-11-24T17:09:15.075Z,92.62
2022-11-24T17:14:16.936Z,92.97
2022-11-24T17:19:18.499Z,92.83
2022-11-24T17:24:20.034Z,92.63
2022-11-24T17:29:21.423Z,92.85
2022-11-24T17:34:22.799Z,92.72
2022-11-24T17:39:25.383Z,92.78
2022-11-24T17:44:26.920Z,93.04
2022-11-24T17:49:28.466Z,92.05
2022-11-24T17:54:45.866Z,92.27
2022-11-24T17:59:48.038Z,92.42
2022-11-24T18:04:50.797Z,92.73
2022-11-24T18:09:56.735Z,93.30
2022-11-24T18:14:58.278Z,93.13
2022-11-24T18:19:59.684Z,93.04
2022-11-24T18:25:01.083Z,93.39
2022-11-24T18:30:03.776Z,92.44
2022-11-24T18:35:05.852Z,92.83
2022-11-24T18:40:08.129Z,93.43
2022-11-24T18:45:10.062Z,92.98
2022-11-24T18:50:11.482Z,92.85
2022-11-24T18:55:12.933Z,93.47
2022-11-24T19:00:14.571Z,93.13
2022-11-24T19:05:15.963Z,93.02
2022-11-24T19:10:17.410Z,92.45
2022-11-24T19:15:18.837Z,92.62
2022-11-24T19:20:20.406Z,92.67
2022-11-24T19:25:21.830Z,92.76
2022-11-24T19:30:23.307Z,92.05
2022-11-24T19:35:24.708Z,92.45
2022-11-24T19:40:26.158Z,92.24
2022-11-24T19:45:28.619Z,92.23
2022-11-24T19:50:30.038Z,92.25
2022-11-24T19:55:32.133Z,92.60
2022-11-24T20:00:33.524Z,92.33
2022-11-24T20:05:34.933Z,92.89
2022-11-24T20:10:36.623Z,92.97
2022-11-24T20:15:38.020Z,92.62
2022-11-24T20:20:42.534Z,92.15
2022-11-24T20:25:43.914Z,92.61
2022-11-24T20:30:45.364Z,92.46
2022-11-24T20:35:46.775Z,92.27
2022-11-24T20:40:48.141Z,92.97
2022-11-24T20:45:49.580Z,92.60
2022-11-24T20:50:51.606Z,93.07
2022-11-24T20:56:05.445Z,92.69
2022-11-24T21:01:10.348Z,92.89
2022-11-24T21:06:13.872Z,92.58
2022-11-24T21:11:15.419Z,92.58
2022-11-24T21:16:23.407Z,92.42
2022-11-24T21:21:27.280Z,92.58
2022-11-24T21:26:28.667Z,92.58
2022-11-24T21:31:30.119Z,92.89
2022-11-24T21:36:33.988Z,93.04
2022-11-24T21:41:35.418Z,92.46
2022-11-24T21:46:42.465Z,93.16
2022-11-24T21:51:47.502Z,92.96
2022-11-24T21:56:48.929Z,92.44
2022-11-24T22:01:50.367Z,92.51
2022-11-24T22:06:55.288Z,93.42
2022-11-24T22:11:56.664Z,93.44
2022-11-24T22:16:58.014Z,92.91
2022-11-24T22:21:59.383Z,92.65
2022-11-24T22:27:02.814Z,91.65
2022-11-24T22:32:04.675Z,91.59
2022-11-24T22:37:06.127Z,91.43
2022-11-24T22:42:07.534Z,91.12
2022-11-24T22:47:09.239Z,91.17
2022-11-24T22:52:10.598Z,91.63
2022-11-24T22:57:11.995Z,91.48
2022-11-24T23:02:13.450Z,91.57
2022-11-24T23:07:14.851Z,91.31
2022-11-24T23:12:18.298Z,90.99
2022-11-24T23:17:19.774Z,90.17
2022-11-24T23:22:21.138Z,89.77
2022-11-24T23:27:22.512Z,90.08
2022-11-24T23:32:23.914Z,89.87
2022-11-24T23:37:39.325Z,90.18
2022-11-24T23:42:47.803Z,90.75
2022-11-24T23:47:49.170Z,91.12
2022-11-24T23:52:50.527Z,91.53
2022-11-24T23:57:51.899Z,91.65
